Time;durP1;ratioP1;P1;durP2;ratioP2;P2;SDS_P1;SDS_P2;PMS_P1;PMS_P2;Temp;Humidity;BMP_temperature;BMP_pressure;BME280_temperature;BME280_humidity;BME280_pressure;Samples;Min_cycle;Max_cycle;Signal;HPM_P1;HPM_P2
2022/05/31 00:00:06;;;;;;;5.90;1.45;;;22.10;39.60;;;;;;7690969;23;20285;-71
2022/05/31 00:03:12;;;;;;;5.03;1.60;;;22.10;39.60;;;;;;7716758;23;20008;-72
2022/05/31 00:06:13;;;;;;;6.13;1.60;;;22.20;39.70;;;;;;7690926;23;20372;-72
2022/05/31 00:09:15;;;;;;;3.03;1.50;;;22.20;39.90;;;;;;7690875;23;20013;-72
2022/05/31 00:12:16;;;;;;;2.25;1.30;;;22.10;40.10;;;;;;7716422;23;20452;-72
2022/05/31 00:15:19;;;;;;;1.50;1.40;;;22.10;40.30;;;;;;7690513;23;20371;-72
2022/05/31 00:18:20;;;;;;;11.70;1.65;;;22.10;40.50;;;;;;7690907;23;20496;-72
2022/05/31 00:21:36;;;;;;;6.95;1.80;;;22.00;40.60;;;;;;7690598;23;20443;-72
2022/05/31 00:24:42;;;;;;;5.00;1.90;;;22.00;40.70;;;;;;7738527;23;20020;-72
2022/05/31 00:27:43;;;;;;;8.23;1.40;;;22.00;40.80;;;;;;7714641;23;20020;-71
2022/05/31 00:30:44;;;;;;;2.60;1.67;;;22.00;40.80;;;;;;7689134;23;20016;-72
2022/05/31 00:33:45;;;;;;;11.70;1.88;;;21.90;40.70;;;;;;7714629;23;20020;-72
2022/05/31 00:36:48;;;;;;;6.88;1.80;;;21.90;40.90;;;;;;7688534;23;20016;-72
2022/05/31 00:39:49;;;;;;;4.55;1.60;;;21.90;41.10;;;;;;7689010;23;20032;-72
2022/05/31 00:42:55;;;;;;;6.07;1.63;;;21.80;41.10;;;;;;7714729;23;20020;-72
2022/05/31 00:45:59;;;;;;;3.45;1.45;;;21.80;41.30;;;;;;7739203;23;20019;-73
2022/05/31 00:49:05;;;;;;;8.63;1.50;;;21.80;41.50;;;;;;7689021;23;20079;-72
2022/05/31 00:52:14;;;;;;;2.40;1.40;;;21.80;41.70;;;;;;7738451;23;20067;-72
2022/05/31 00:55:26;;;;;;;5.55;1.73;;;21.70;41.70;;;;;;7714158;23;20020;-72
2022/05/31 00:58:32;;;;;;;5.68;1.42;;;21.70;41.70;;;;;;7714211;23;20044;-72
2022/05/31 01:01:38;;;;;;;3.33;1.52;;;21.70;41.60;;;;;;7738469;23;20028;-72
2022/05/31 01:04:50;;;;;;;5.88;1.52;;;21.70;41.70;;;;;;7739027;23;20424;-74
2022/05/31 01:07:51;;;;;;;1.45;1.30;;;21.70;41.90;;;;;;7688107;23;20020;-72
2022/05/31 01:10:52;;;;;;;3.17;1.60;;;21.60;41.80;;;;;;7687433;22;20035;-72
2022/05/31 01:14:14;;;;;;;2.42;1.58;;;21.60;42.00;;;;;;7711715;23;20027;-72
2022/05/31 01:17:35;;;;;;;3.60;1.67;;;21.60;42.40;;;;;;7707823;23;20127;-72
2022/05/31 01:21:08;;;;;;;4.63;1.35;;;21.60;42.30;;;;;;7560198;23;20018;-72
2022/05/31 01:24:34;;;;;;;2.70;1.48;;;21.50;42.40;;;;;;7537199;23;20036;-72
2022/05/31 01:27:59;;;;;;;1.92;1.30;;;21.50;42.40;;;;;;7560736;23;20036;-72
2022/05/31 01:31:09;;;;;;;5.40;1.50;;;21.50;42.40;;;;;;7561127;23;20025;-71
2022/05/31 01:34:29;;;;;;;3.35;1.33;;;21.50;42.30;;;;;;7560814;23;20494;-71
2022/05/31 01:37:57;;;;;;;3.65;1.50;;;21.50;42.40;;;;;;7560520;23;20390;-71
2022/05/31 01:41:04;;;;;;;6.13;1.15;;;21.50;42.40;;;;;;7558737;23;20018;-71
2022/05/31 01:44:08;;;;;;;3.53;1.50;;;21.50;42.40;;;;;;7537288;23;20015;-71
2022/05/31 01:47:11;;;;;;;5.30;1.40;;;21.60;42.60;;;;;;7561723;23;20061;-71
2022/05/31 01:50:19;;;;;;;3.33;1.30;;;21.60;42.60;;;;;;7528871;23;20059;-71
2022/05/31 01:53:20;;;;;;;2.85;1.50;;;21.50;42.70;;;;;;7501473;23;20022;-71
2022/05/31 01:56:22;;;;;;;7.68;1.50;;;21.50;42.90;;;;;;7631683;23;20032;-71
2022/05/31 01:59:25;;;;;;;2.85;1.50;;;21.50;43.30;;;;;;7684811;23;20012;-71
2022/05/31 02:02:27;;;;;;;2.40;1.50;;;21.40;43.50;;;;;;7684508;23;20031;-72
2022/05/31 02:05:29;;;;;;;2.38;1.60;;;21.40;43.60;;;;;;7734800;23;20040;-71
2022/05/31 02:08:30;;;;;;;3.30;1.45;;;21.30;43.80;;;;;;7710762;23;20013;-71
2022/05/31 02:11:32;;;;;;;2.17;1.33;;;21.30;44.00;;;;;;7683901;23;20028;-71
2022/05/31 02:14:44;;;;;;;5.18;1.73;;;21.20;44.10;;;;;;7684332;23;20119;-71
2022/05/31 02:17:45;;;;;;;4.68;1.60;;;21.20;44.30;;;;;;7684532;23;20300;-71
2022/05/31 02:21:05;;;;;;;6.68;1.48;;;21.10;44.40;;;;;;7687676;23;20016;-71
2022/05/31 02:24:12;;;;;;;3.97;1.80;;;21.10;44.50;;;;;;7684289;23;20023;-71
2022/05/31 02:27:14;;;;;;;2.55;1.50;;;21.00;44.60;;;;;;7734283;23;20054;-71
2022/05/31 02:30:16;;;;;;;3.90;1.63;;;21.00;44.60;;;;;;7659835;23;20020;-71
2022/05/31 02:33:17;;;;;;;3.30;1.63;;;21.00;44.80;;;;;;7710381;23;20025;-71
2022/05/31 02:36:18;;;;;;;12.95;2.10;;;21.00;44.80;;;;;;7710383;23;20020;-71
2022/05/31 02:39:20;;;;;;;4.47;1.60;;;21.00;44.80;;;;;;7685685;23;20095;-71
2022/05/31 02:42:23;;;;;;;5.60;1.60;;;20.90;44.80;;;;;;7736900;23;20020;-71
2022/05/31 02:45:24;;;;;;;4.10;1.40;;;20.90;44.90;;;;;;7662463;23;20022;-71
2022/05/31 02:48:25;;;;;;;3.10;1.40;;;20.90;44.90;;;;;;7686984;23;20023;-71
2022/05/31 02:51:27;;;;;;;6.95;1.60;;;20.90;44.90;;;;;;7712446;23;20320;-71
2022/05/31 02:54:28;;;;;;;8.57;1.30;;;20.90;44.80;;;;;;7686533;23;20017;-72
2022/05/31 02:57:47;;;;;;;3.22;1.60;;;20.90;44.80;;;;;;7689929;23;20016;-71
2022/05/31 03:01:27;;;;;;;6.25;1.50;;;20.90;44.80;;;;;;7715336;23;20027;-71
2022/05/31 03:04:47;;;;;;;2.63;1.70;;;21.00;44.80;;;;;;7712326;23;20009;-72
2022/05/31 03:08:07;;;;;;;5.20;1.45;;;21.00;44.70;;;;;;7690410;23;20017;-72
2022/05/31 03:11:47;;;;;;;1.38;1.20;;;21.00;44.50;;;;;;7710230;23;20336;-72
2022/05/31 03:14:56;;;;;;;4.25;1.63;;;21.00;44.40;;;;;;7661602;23;20013;-71
2022/05/31 03:18:09;;;;;;;9.27;1.83;;;21.00;44.30;;;;;;7738081;23;20061;-71
2022/05/31 03:21:16;;;;;;;4.38;1.48;;;21.10;44.20;;;;;;7738224;23;20090;-72
2022/05/31 03:24:30;;;;;;;5.00;1.95;;;21.10;44.20;;;;;;7714051;23;20024;-72
2022/05/31 03:27:32;;;;;;;5.03;1.77;;;21.10;44.20;;;;;;7713709;23;20020;-71
2022/05/31 03:30:36;;;;;;;3.67;1.60;;;21.10;44.20;;;;;;7714065;23;20005;-71
2022/05/31 03:33:37;;;;;;;4.65;1.77;;;21.10;44.20;;;;;;7687867;23;20016;-72
2022/05/31 03:36:38;;;;;;;3.53;1.80;;;21.10;44.20;;;;;;7738266;23;20425;-71
2022/05/31 03:39:45;;;;;;;4.25;1.50;;;21.10;44.30;;;;;;7687448;23;20320;-72
2022/05/31 03:42:46;;;;;;;2.88;1.38;;;21.10;44.40;;;;;;7687200;23;20015;-72
2022/05/31 03:45:48;;;;;;;4.63;1.85;;;21.10;44.90;;;;;;7687829;23;20013;-72
2022/05/31 03:49:09;;;;;;;3.72;1.48;;;21.00;44.90;;;;;;7687365;23;20297;-72
2022/05/31 03:52:32;;;;;;;4.25;1.55;;;20.90;44.80;;;;;;7690646;23;20320;-72
2022/05/31 03:55:39;;;;;;;5.50;1.52;;;21.00;44.90;;;;;;7663754;23;20300;-73
2022/05/31 03:58:41;;;;;;;8.35;2.03;;;20.90;45.00;;;;;;7737873;23;20020;-71
2022/05/31 04:01:53;;;;;;;2.10;1.35;;;20.90;44.90;;;;;;7709657;23;20016;-71
2022/05/31 04:04:54;;;;;;;5.38;1.13;;;21.00;44.90;;;;;;7737579;23;20027;-72
2022/05/31 04:08:00;;;;;;;6.35;2.00;;;21.00;44.90;;;;;;7687191;23;20021;-72
2022/05/31 04:11:01;;;;;;;2.40;1.55;;;21.00;44.90;;;;;;7712067;23;20355;-72
2022/05/31 04:14:02;;;;;;;10.35;1.70;;;21.00;44.90;;;;;;7737951;23;20012;-72
2022/05/31 04:17:19;;;;;;;3.60;1.80;;;21.10;45.00;;;;;;7708082;23;20074;-72
2022/05/31 04:20:20;;;;;;;3.13;2.00;;;21.10;45.00;;;;;;7737563;22;20071;-72
2022/05/31 04:26:59;;;;;;;4.05;1.55;;;21.20;44.80;;;;;;7713325;23;20012;-72
2022/05/31 04:30:12;;;;;;;8.30;1.73;;;21.20;44.80;;;;;;7713086;23;20005;-72
2022/05/31 04:33:31;;;;;;;5.32;1.75;;;21.20;45.00;;;;;;7689743;23;20087;-71
2022/05/31 04:36:33;;;;;;;13.35;1.70;;;21.20;45.30;;;;;;7711656;23;20048;-72
2022/05/31 04:39:34;;;;;;;5.95;1.88;;;21.20;46.00;;;;;;7737233;23;20327;-72
2022/05/31 04:42:42;;;;;;;8.85;1.83;;;21.10;46.50;;;;;;7713396;23;20332;-73
2022/05/31 04:45:51;;;;;;;2.63;1.45;;;21.10;46.70;;;;;;7737442;23;20096;-72
2022/05/31 04:49:04;;;;;;;6.22;1.83;;;21.10;46.90;;;;;;7686695;23;20012;-73
2022/05/31 04:52:06;;;;;;;4.88;2.13;;;21.10;47.00;;;;;;7736856;23;20100;-73
2022/05/31 04:55:08;;;;;;;5.30;2.13;;;21.10;48.00;;;;;;7712903;23;20024;-73
2022/05/31 04:58:21;;;;;;;5.20;2.10;;;21.10;47.50;;;;;;7686348;23;20386;-72
2022/05/31 05:01:22;;;;;;;3.78;2.03;;;21.00;47.70;;;;;;7686172;23;20028;-72
2022/05/31 05:04:27;;;;;;;6.05;2.15;;;21.00;47.80;;;;;;7686286;23;20020;-72
2022/05/31 05:07:31;;;;;;;5.47;1.55;;;21.00;47.90;;;;;;7658742;23;20020;-72
2022/05/31 05:10:33;;;;;;;2.63;1.60;;;21.10;47.70;;;;;;7674978;23;20097;-72
2022/05/31 05:13:57;;;;;;;5.15;2.05;;;21.10;47.60;;;;;;7710777;23;20416;-72
2022/05/31 05:17:29;;;;;;;4.43;2.05;;;21.10;47.60;;;;;;7734478;23;20016;-74
2022/05/31 05:20:33;;;;;;;2.80;1.50;;;21.10;47.70;;;;;;7684596;23;20028;-72
2022/05/31 05:23:35;;;;;;;7.05;1.33;;;21.00;47.80;;;;;;7734480;23;20047;-72
2022/05/31 05:26:39;;;;;;;2.10;1.45;;;21.00;47.80;;;;;;7734980;23;20044;-72
2022/05/31 05:34:03;;;;;;;9.23;1.20;;;21.00;47.40;;;;;;7632768;23;20035;-71
2022/05/31 05:37:19;;;;;;;10.00;1.60;;;21.00;47.00;;;;;;7644140;23;20083;-71
2022/05/31 05:40:20;;;;;;;2.38;1.40;;;21.00;46.80;;;;;;7670786;23;20377;-71
2022/05/31 05:43:34;;;;;;;1.60;1.30;;;21.10;46.90;;;;;;7670950;23;20013;-71
2022/05/31 05:46:40;;;;;;;3.53;1.45;;;21.10;47.10;;;;;;7646215;23;20373;-71
2022/05/31 05:49:41;;;;;;;3.13;1.63;;;21.00;47.60;;;;;;7645855;23;20013;-71
2022/05/31 05:53:06;;;;;;;7.45;2.00;;;20.90;48.20;;;;;;7546301;23;20015;-71
2022/05/31 05:56:16;;;;;;;3.85;2.20;;;20.90;49.00;;;;;;7559898;23;20085;-73
2022/05/31 05:59:43;;;;;;;5.43;1.92;;;20.80;49.60;;;;;;7497802;23;20335;-73
2022/05/31 06:03:27;;;;;;;5.93;2.10;;;20.70;50.60;;;;;;7406690;23;20069;-71
2022/05/31 06:06:41;;;;;;;8.02;2.78;;;20.50;51.10;;;;;;7407946;23;20024;-73
2022/05/31 06:09:49;;;;;;;7.82;3.65;;;20.40;51.80;;;;;;7384710;24;20055;-72
2022/05/31 06:12:56;;;;;;;8.70;2.42;;;20.30;52.20;;;;;;7383787;24;20024;-72
2022/05/31 06:15:57;;;;;;;10.38;3.08;;;20.10;52.70;;;;;;7430944;23;20095;-72
2022/05/31 06:19:06;;;;;;;5.50;2.33;;;20.00;53.50;;;;;;7384964;23;20092;-71
2022/05/31 06:22:08;;;;;;;7.03;2.42;;;19.90;54.50;;;;;;7384167;24;20337;-72
2022/05/31 06:25:23;;;;;;;8.90;2.78;;;19.80;55.10;;;;;;7408400;23;20112;-71
2022/05/31 06:28:44;;;;;;;5.53;1.67;;;19.70;55.50;;;;;;7398559;23;20018;-71
2022/05/31 06:31:46;;;;;;;5.70;1.88;;;19.60;55.80;;;;;;7547493;23;20039;-71
2022/05/31 06:34:58;;;;;;;7.60;2.20;;;19.60;56.00;;;;;;7663136;22;20307;-71
2022/05/31 06:38:09;;;;;;;4.60;2.03;;;19.60;56.10;;;;;;7681293;22;20016;-71
2022/05/31 06:41:10;;;;;;;2.55;1.80;;;19.70;56.20;;;;;;7709704;22;20016;-71
2022/05/31 06:44:37;;;;;;;6.88;2.10;;;19.70;56.30;;;;;;7708736;22;20020;-72
2022/05/31 06:47:57;;;;;;;5.45;2.20;;;19.70;56.40;;;;;;7686348;22;20017;-71
2022/05/31 06:56:48;;;;;;;8.55;2.30;;;19.70;56.30;;;;;;7708461;22;20016;-72
2022/05/31 06:58:16;;;;;;;7.75;2.92;;;19.70;56.60;;;;;;7709245;22;20016;-71
2022/05/31 07:01:30;;;;;;;8.45;3.70;;;19.70;56.90;;;;;;7709364;22;20030;-72
2022/05/31 07:04:35;;;;;;;4.82;2.25;;;19.80;57.00;;;;;;7659144;22;20142;-71
2022/05/31 07:07:37;;;;;;;10.52;2.53;;;19.80;57.30;;;;;;7684085;22;20087;-71
2022/05/31 07:10:57;;;;;;;7.78;2.35;;;19.80;57.50;;;;;;7687932;22;20332;-72
2022/05/31 07:14:16;;;;;;;7.97;2.30;;;19.80;57.70;;;;;;7710309;23;20402;-72
2022/05/31 07:17:36;;;;;;;4.97;2.60;;;19.70;58.20;;;;;;7709646;23;20008;-71
2022/05/31 07:20:37;;;;;;;11.32;3.00;;;19.80;58.30;;;;;;7684310;23;20013;-72
2022/05/31 07:23:38;;;;;;;6.10;3.13;;;19.80;58.50;;;;;;7709001;23;20035;-72
2022/05/31 07:26:39;;;;;;;3.78;2.30;;;19.80;58.30;;;;;;7686479;23;20035;-72
2022/05/31 07:29:42;;;;;;;9.82;2.78;;;19.90;58.40;;;;;;7686390;23;20412;-73
2022/05/31 07:32:43;;;;;;;7.78;4.22;;;20.00;58.40;;;;;;7736897;23;20035;-71
2022/05/31 07:35:44;;;;;;;5.03;2.42;;;20.00;58.20;;;;;;7734202;23;20071;-72
2022/05/31 07:38:46;;;;;;;6.53;1.98;;;20.10;58.20;;;;;;7686280;23;20312;-71
2022/05/31 07:41:49;;;;;;;8.60;2.60;;;20.10;58.10;;;;;;7735906;23;20016;-72
2022/05/31 07:44:55;;;;;;;4.70;2.30;;;20.20;58.00;;;;;;7736785;23;20024;-72
2022/05/31 07:47:56;;;;;;;2.97;1.80;;;20.20;57.70;;;;;;7685991;23;20020;-71
2022/05/31 07:50:57;;;;;;;5.85;2.38;;;20.30;57.30;;;;;;7686273;23;20070;-71
2022/05/31 07:54:16;;;;;;;5.22;1.77;;;20.40;57.00;;;;;;7690011;23;20327;-71
2022/05/31 08:01:17;;;;;;;4.93;2.55;;;20.50;56.50;;;;;;7711915;23;20035;-72
2022/05/31 08:04:21;;;;;;;5.22;2.97;;;20.60;56.50;;;;;;7735558;23;20035;-71
2022/05/31 08:07:22;;;;;;;6.28;2.92;;;20.70;56.50;;;;;;7686260;23;20428;-72
2022/05/31 08:10:24;;;;;;;5.28;2.50;;;20.80;56.40;;;;;;7735741;23;20036;-73
2022/05/31 08:13:25;;;;;;;12.00;2.42;;;20.90;56.10;;;;;;7686121;23;20107;-73
2022/05/31 08:16:28;;;;;;;8.00;2.63;;;21.00;55.80;;;;;;7712057;23;20043;-72
2022/05/31 08:19:30;;;;;;;11.50;2.05;;;21.20;55.50;;;;;;7661389;23;20052;-72
2022/05/31 08:22:33;;;;;;;2.58;1.60;;;21.30;55.10;;;;;;7711634;23;20024;-72
2022/05/31 08:25:54;;;;;;;3.00;1.90;;;21.50;54.60;;;;;;7712148;23;20098;-73
2022/05/31 08:28:55;;;;;;;2.95;1.98;;;21.60;54.30;;;;;;7734132;23;20127;-72
2022/05/31 08:31:58;;;;;;;6.90;2.88;;;21.70;54.00;;;;;;7710915;23;20017;-73
2022/05/31 08:34:59;;;;;;;9.85;1.98;;;21.90;53.90;;;;;;7736140;23;20103;-72
2022/05/31 08:38:00;;;;;;;7.80;1.95;;;22.00;53.60;;;;;;7711472;23;20017;-72
2022/05/31 08:41:32;;;;;;;5.25;1.63;;;22.10;53.30;;;;;;7711428;23;20020;-73
2022/05/31 08:45:11;;;;;;;1.55;1.17;;;22.20;52.90;;;;;;7708459;23;20150;-74
2022/05/31 08:48:35;;;;;;;7.57;2.33;;;22.30;52.50;;;;;;7701935;23;20018;-72
2022/05/31 08:51:52;;;;;;;11.70;5.10;;;22.50;52.30;;;;;;7682950;23;20040;-71
2022/05/31 08:58:37;;;;;;;9.82;3.90;;;22.90;52.00;;;;;;7682928;23;20034;-72
2022/05/31 09:01:47;;;;;;;6.13;3.05;;;23.10;52.10;;;;;;7682279;23;20035;-72
2022/05/31 09:05:06;;;;;;;5.25;2.22;;;23.30;52.00;;;;;;7709786;23;20032;-73
2022/05/31 09:08:20;;;;;;;;;;;23.40;51.70;;;;;;7710114;23;20012;-71
2022/05/31 09:11:43;;;;;;;30.92;3.70;;;23.60;51.40;;;;;;7708798;23;19938;-72
2022/05/31 09:14:54;;;;;;;12.90;6.13;;;23.80;51.10;;;;;;7684711;23;20012;-72
2022/05/31 09:18:20;;;;;;;27.77;3.55;;;23.90;50.80;;;;;;7734273;23;20013;-72
2022/05/31 09:21:38;;;;;;;9.27;3.65;;;24.00;50.50;;;;;;7732923;23;20016;-72
2022/05/31 09:24:45;;;;;;;17.40;3.83;;;24.10;50.20;;;;;;7708702;23;20320;-72
2022/05/31 09:27:48;;;;;;;10.57;4.22;;;24.10;50.00;;;;;;7657242;23;20416;-73
2022/05/31 09:30:50;;;;;;;6.60;3.38;;;24.20;49.80;;;;;;7709377;23;20024;-73
2022/05/31 09:34:11;;;;;;;2.17;1.40;;;24.20;48.90;;;;;;7709175;23;20456;-72
2022/05/31 09:37:43;;;;;;;5.20;1.70;;;24.10;48.50;;;;;;7708860;23;20012;-72
2022/05/31 09:40:50;;;;;;;17.77;6.45;;;24.10;48.30;;;;;;7708374;23;20031;-71
2022/05/31 09:44:10;;;;;;;3.95;2.22;;;24.20;48.10;;;;;;7683306;23;20021;-73
2022/05/31 09:47:21;;;;;;;2.95;1.20;;;24.20;47.90;;;;;;7682109;23;20119;-72
2022/05/31 09:50:27;;;;;;;16.02;4.95;;;24.20;47.40;;;;;;7708426;23;20297;-73
2022/05/31 09:57:29;;;;;;;16.27;6.88;;;24.20;47.20;;;;;;7705885;23;20012;-72
2022/05/31 10:00:37;;;;;;;10.75;5.25;;;24.20;47.00;;;;;;7705759;23;20388;-72
2022/05/31 10:03:48;;;;;;;10.02;3.28;;;24.30;46.60;;;;;;7682630;23;20016;-72
2022/05/31 10:06:56;;;;;;;7.00;2.67;;;24.30;46.60;;;;;;7699369;23;20016;-73
2022/05/31 10:10:05;;;;;;;3.60;1.85;;;24.30;46.90;;;;;;7699008;23;20016;-72
2022/05/31 10:13:09;;;;;;;9.00;2.92;;;24.30;47.10;;;;;;7706159;23;20498;-73
2022/05/31 10:16:17;;;;;;;12.63;5.32;;;24.50;47.20;;;;;;7682166;23;20031;-72
2022/05/31 10:19:30;;;;;;;15.07;6.50;;;24.70;47.20;;;;;;7683283;23;20059;-74
2022/05/31 10:22:31;;;;;;;9.25;4.13;;;24.80;46.90;;;;;;7707136;23;20055;-72
2022/05/31 10:26:08;;;;;;;4.70;2.13;;;24.80;46.50;;;;;;7522077;23;20102;-72
2022/05/31 10:29:46;;;;;;;15.27;5.20;;;24.80;46.70;;;;;;7540539;23;20443;-72
2022/05/31 10:33:21;;;;;;;19.02;9.00;;;24.90;46.20;;;;;;7500128;23;20029;-73
2022/05/31 10:36:25;;;;;;;10.00;3.85;;;25.00;45.80;;;;;;7546910;23;20418;-72
2022/05/31 10:39:32;;;;;;;4.00;2.08;;;25.10;45.30;;;;;;7523170;23;20324;-73
2022/05/31 10:42:38;;;;;;;10.98;3.97;;;25.10;45.20;;;;;;7523732;23;20091;-72
2022/05/31 10:45:39;;;;;;;9.50;3.72;;;25.20;45.20;;;;;;7499765;23;20015;-73
2022/05/31 10:49:02;;;;;;;9.90;3.40;;;25.30;45.10;;;;;;7499642;23;20034;-72
2022/05/31 10:52:30;;;;;;;9.23;4.55;;;25.50;44.80;;;;;;7522337;23;20044;-71
2022/05/31 10:55:40;;;;;;;9.02;4.40;;;25.50;44.60;;;;;;7545746;23;20023;-72
2022/05/31 10:58:47;;;;;;;15.30;5.95;;;25.50;44.90;;;;;;7546222;23;20039;-73
2022/05/31 11:01:49;;;;;;;9.18;4.30;;;25.40;45.40;;;;;;7710713;23;20031;-73
2022/05/31 11:05:01;;;;;;;9.13;4.53;;;25.30;46.00;;;;;;7733355;23;20013;-72
2022/05/31 11:11:44;;;;;;;19.02;5.88;;;25.00;46.80;;;;;;7669134;23;20099;-73
2022/05/31 11:15:20;;;;;;;15.65;6.10;;;25.00;47.00;;;;;;7678675;23;20015;-72
2022/05/31 11:19:11;;;;;;;21.17;7.60;;;25.10;46.80;;;;;;7706246;23;20017;-71
2022/05/31 11:22:14;;;;;;;18.02;7.68;;;25.20;46.30;;;;;;7497275;23;20098;-71
2022/05/31 11:25:56;;;;;;;13.27;5.90;;;25.30;45.90;;;;;;7523669;23;20039;-72
2022/05/31 11:29:21;;;;;;;11.32;4.60;;;25.30;45.60;;;;;;7345976;24;20017;-72
2022/05/31 11:32:28;;;;;;;8.20;3.70;;;25.40;45.60;;;;;;7325290;24;20032;-72
2022/05/31 11:35:59;;;;;;;5.60;3.00;;;25.40;45.70;;;;;;7326352;24;20533;-72
2022/05/31 11:39:36;;;;;;;4.50;2.42;;;25.40;45.60;;;;;;7325610;24;20025;-72
2022/05/31 11:43:02;;;;;;;4.82;1.88;;;25.20;45.80;;;;;;7348926;24;20434;-72
2022/05/31 11:46:28;;;;;;;5.40;2.63;;;25.10;46.00;;;;;;7345636;24;20013;-72
2022/05/31 11:49:47;;;;;;;6.55;2.85;;;25.00;46.10;;;;;;7304081;24;20036;-74
2022/05/31 11:53:03;;;;;;;8.38;2.20;;;24.90;46.30;;;;;;7325027;24;20028;-73
2022/05/31 11:56:22;;;;;;;4.70;2.15;;;24.90;46.40;;;;;;7427520;23;20470;-71
2022/05/31 11:59:33;;;;;;;7.20;1.95;;;24.80;46.50;;;;;;7464936;23;20151;-72
2022/05/31 12:02:46;;;;;;;4.30;1.73;;;24.70;46.80;;;;;;7488151;23;20043;-72
2022/05/31 12:05:57;;;;;;;4.75;1.85;;;24.70;47.20;;;;;;7634713;23;20391;-71
2022/05/31 12:09:24;;;;;;;4.55;2.20;;;24.60;47.50;;;;;;7710281;23;20269;-72
2022/05/31 12:12:31;;;;;;;7.60;2.33;;;24.40;47.90;;;;;;7732613;23;20412;-71
2022/05/31 12:15:35;;;;;;;2.40;1.50;;;24.30;48.60;;;;;;7733137;23;20426;-72
2022/05/31 12:19:07;;;;;;;3.42;1.67;;;24.00;49.40;;;;;;7710369;23;20009;-72
2022/05/31 12:22:40;;;;;;;7.53;1.50;;;23.50;50.30;;;;;;7682258;23;20031;-73
2022/05/31 12:25:47;;;;;;;5.95;1.45;;;23.20;50.70;;;;;;7682572;23;20016;-72
2022/05/31 12:28:54;;;;;;;9.20;1.92;;;22.80;51.60;;;;;;7709618;23;20008;-72
2022/05/31 12:32:30;;;;;;;5.18;2.10;;;22.40;52.80;;;;;;7709965;23;20016;-72
2022/05/31 12:35:31;;;;;;;7.40;1.85;;;22.00;53.70;;;;;;7732380;23;20013;-71
2022/05/31 12:38:51;;;;;;;6.40;1.40;;;21.80;54.30;;;;;;7683364;23;20024;-72
2022/05/31 12:41:52;;;;;;;5.75;1.90;;;21.70;54.70;;;;;;7733482;23;20302;-72
2022/05/31 12:45:42;;;;;;;3.58;1.65;;;21.60;54.90;;;;;;7683847;23;20012;-72
2022/05/31 12:48:55;;;;;;;4.57;1.90;;;21.60;55.60;;;;;;7463167;23;20141;-72
2022/05/31 12:55:32;;;;;;;2.00;1.60;;;21.80;56.30;;;;;;7488821;23;20094;-72
2022/05/31 12:58:43;;;;;;;9.30;1.30;;;21.80;56.10;;;;;;7488777;23;20020;-72
2022/05/31 13:01:57;;;;;;;4.15;2.50;;;21.80;56.30;;;;;;7488880;23;20023;-72
2022/05/31 13:05:06;;;;;;;11.18;4.35;;;21.90;56.40;;;;;;7512177;23;20098;-72
2022/05/31 13:08:33;;;;;;;10.70;4.55;;;22.10;56.50;;;;;;7489357;23;20019;-72
2022/05/31 13:21:41;;;;;;;7.40;2.65;;;22.40;55.90;;;;;;7488224;23;20019;-71
2022/05/31 13:24:54;;;;;;;9.15;1.80;;;22.50;55.70;;;;;;7574835;23;20427;-72
2022/05/31 13:27:58;;;;;;;3.80;1.80;;;22.40;55.40;;;;;;7672142;23;20400;-73
2022/05/31 13:31:12;;;;;;;2.35;1.60;;;22.40;55.10;;;;;;7722535;23;20099;-73
2022/05/31 13:34:26;;;;;;;5.60;1.90;;;22.40;55.10;;;;;;7672839;23;20025;-72
2022/05/31 13:37:26;;;;;;;7.63;2.72;;;22.50;55.10;;;;;;7671386;23;20083;-72
2022/05/31 13:40:34;;;;;;;5.85;1.73;;;22.60;54.90;;;;;;7671187;23;20024;-73
2022/05/31 13:43:38;;;;;;;4.60;2.15;;;22.80;54.80;;;;;;7673592;23;20368;-72
2022/05/31 13:46:44;;;;;;;7.75;2.20;;;23.00;55.30;;;;;;7673464;23;20048;-72
2022/05/31 13:49:47;;;;;;;4.90;1.98;;;23.10;54.50;;;;;;7673654;23;20112;-73
2022/05/31 13:52:51;;;;;;;7.25;1.80;;;23.20;54.60;;;;;;7671765;23;20075;-72
2022/05/31 13:56:00;;;;;;;4.88;1.60;;;23.20;54.50;;;;;;7673917;23;20105;-72
2022/05/31 13:59:01;;;;;;;8.77;2.50;;;23.10;54.60;;;;;;7674285;23;20017;-72
2022/05/31 14:02:04;;;;;;;10.43;2.42;;;23.00;54.80;;;;;;7674599;23;20056;-72
2022/05/31 14:05:05;;;;;;;2.03;1.63;;;22.90;55.10;;;;;;7673989;23;20480;-72
2022/05/31 14:08:09;;;;;;;11.02;1.75;;;22.80;55.40;;;;;;7674343;23;20020;-73
2022/05/31 14:11:17;;;;;;;6.50;2.70;;;22.90;55.50;;;;;;7685377;23;20032;-71
2022/05/31 14:14:30;;;;;;;4.50;2.47;;;23.00;55.40;;;;;;7735233;23;20367;-72
2022/05/31 14:17:39;;;;;;;6.22;2.63;;;23.20;55.10;;;;;;7684357;23;20008;-72
2022/05/31 14:20:42;;;;;;;4.75;2.20;;;23.30;54.80;;;;;;7710154;23;20040;-72
2022/05/31 14:23:44;;;;;;;4.68;2.30;;;23.60;54.50;;;;;;7710900;23;20151;-72
2022/05/31 14:26:49;;;;;;;2.88;1.65;;;23.90;53.90;;;;;;7684429;23;20059;-72
2022/05/31 14:30:07;;;;;;;5.95;2.10;;;24.10;53.50;;;;;;7707682;23;20009;-72
2022/05/31 14:33:10;;;;;;;3.33;1.97;;;24.40;52.80;;;;;;7734904;23;20071;-71
2022/05/31 14:36:11;;;;;;;5.63;1.67;;;25.10;51.50;;;;;;7684363;23;20119;-71
2022/05/31 14:39:22;;;;;;;2.17;1.10;;;25.30;50.80;;;;;;7735516;23;20004;-72
2022/05/31 14:42:25;;;;;;;11.95;4.82;;;25.30;50.50;;;;;;7708736;23;20029;-72
2022/05/31 14:45:31;;;;;;;12.85;5.28;;;25.40;50.40;;;;;;7734424;23;20021;-72
2022/05/31 14:48:35;;;;;;;9.68;3.33;;;25.80;49.90;;;;;;7709937;23;20380;-72
2022/05/31 14:51:39;;;;;;;5.65;2.17;;;26.20;49.30;;;;;;7709412;23;20396;-72
2022/05/31 14:54:43;;;;;;;10.43;4.40;;;26.50;48.70;;;;;;7733127;23;20020;-72
2022/05/31 15:01:10;;;;;;;2.72;1.50;;;26.60;48.20;;;;;;7710040;23;20020;-72
2022/05/31 15:04:49;;;;;;;3.58;1.50;;;26.50;48.00;;;;;;7683536;23;20016;-73
2022/05/31 15:07:52;;;;;;;4.53;1.83;;;26.20;48.40;;;;;;7731900;23;20020;-73
2022/05/31 15:10:54;;;;;;;1.88;1.48;;;25.80;49.00;;;;;;7681935;23;20094;-72
2022/05/31 15:20:45;;;;;;;5.00;2.10;;;24.90;50.40;;;;;;7731777;23;20017;-71
2022/05/31 15:23:47;;;;;;;5.38;2.38;;;24.70;50.80;;;;;;7682958;23;20091;-73
2022/05/31 15:26:48;;;;;;;6.57;2.00;;;24.50;51.10;;;;;;7708794;23;20028;-72
2022/05/31 15:29:52;;;;;;;7.47;3.20;;;24.30;51.40;;;;;;7680477;23;20012;-72
2022/05/31 15:32:53;;;;;;;10.25;4.40;;;24.30;51.70;;;;;;7682429;23;20008;-72
2022/05/31 15:35:54;;;;;;;6.93;3.50;;;24.30;51.90;;;;;;7681676;23;20443;-72
2022/05/31 15:38:58;;;;;;;4.60;2.92;;;24.30;52.10;;;;;;7708464;23;20024;-72
2022/05/31 15:41:59;;;;;;;5.78;2.47;;;24.30;52.20;;;;;;7715657;23;20020;-71
2022/05/31 15:45:01;;;;;;;7.95;3.50;;;24.10;52.30;;;;;;7709675;23;20039;-73
2022/05/31 15:48:02;;;;;;;11.80;5.43;;;24.00;52.40;;;;;;7683960;23;20020;-72
2022/05/31 15:51:03;;;;;;;9.07;3.17;;;23.90;52.20;;;;;;7710300;23;20016;-72
2022/05/31 15:54:09;;;;;;;6.35;3.50;;;23.80;51.90;;;;;;7710542;23;20052;-73
2022/05/31 15:57:10;;;;;;;4.03;2.20;;;23.70;52.00;;;;;;7710977;23;20016;-72
2022/05/31 16:00:14;;;;;;;4.35;2.00;;;23.60;52.10;;;;;;7659899;23;20048;-72
2022/05/31 16:03:17;;;;;;;10.25;4.68;;;23.50;52.20;;;;;;7685647;23;20120;-72
2022/05/31 16:06:23;;;;;;;11.65;4.38;;;23.50;52.40;;;;;;7711956;23;20405;-72
2022/05/31 16:09:29;;;;;;;7.95;4.63;;;23.50;52.40;;;;;;7735813;23;20020;-72
2022/05/31 16:12:30;;;;;;;5.63;3.13;;;23.40;52.50;;;;;;7712534;23;20021;-72
2022/05/31 16:15:31;;;;;;;4.75;2.90;;;23.30;52.70;;;;;;7687662;23;20024;-72
2022/05/31 16:18:32;;;;;;;7.32;2.80;;;23.30;52.90;;;;;;7686299;23;20473;-73
2022/05/31 16:21:34;;;;;;;8.68;3.70;;;23.30;53.20;;;;;;7713106;23;20336;-72
2022/05/31 16:24:35;;;;;;;7.40;2.80;;;23.30;53.40;;;;;;7713742;23;20039;-73
2022/05/31 16:27:36;;;;;;;8.15;4.13;;;23.20;53.60;;;;;;7722599;22;20020;-71
2022/05/31 16:30:46;;;;;;;10.15;4.07;;;23.20;54.00;;;;;;7706894;23;20095;-71
2022/05/31 16:33:47;;;;;;;3.30;2.33;;;23.10;54.30;;;;;;7702293;23;20016;-72
2022/05/31 16:36:51;;;;;;;6.63;2.42;;;23.10;54.60;;;;;;7713178;23;20119;-72
2022/05/31 16:43:13;;;;;;;11.85;3.90;;;23.00;55.00;;;;;;7711288;23;20028;-73
2022/05/31 16:46:18;;;;;;;15.95;7.15;;;22.90;55.20;;;;;;7686053;23;20032;-72
2022/05/31 16:49:20;;;;;;;12.48;5.28;;;22.90;55.40;;;;;;7685849;23;20013;-72
2022/05/31 16:52:26;;;;;;;18.70;7.88;;;22.90;55.60;;;;;;7710664;23;20451;-72
2022/05/31 16:55:27;;;;;;;39.97;17.95;;;22.80;55.80;;;;;;7736326;23;20013;-73
2022/05/31 16:58:28;;;;;;;12.23;5.22;;;22.80;56.10;;;;;;7712016;23;20017;-72
2022/05/31 17:01:30;;;;;;;17.33;7.97;;;22.70;56.40;;;;;;7712025;23;20103;-73
2022/05/31 17:04:32;;;;;;;16.05;7.13;;;22.70;56.60;;;;;;7685020;23;20039;-72
2022/05/31 17:14:36;;;;;;;10.23;3.08;;;22.60;56.90;;;;;;7572810;23;20022;-72
2022/05/31 17:17:39;;;;;;;26.85;10.80;;;22.50;57.10;;;;;;7597877;23;20045;-73
2022/05/31 17:20:46;;;;;;;32.50;12.50;;;22.50;57.30;;;;;;7597408;23;20036;-72
2022/05/31 17:23:47;;;;;;;36.25;13.80;;;22.50;57.40;;;;;;7597071;23;20017;-72